Megargel, Texas
Current Conditions -  °F | °C
As of 8:10 AM on Monday 26 Jan 2015 (Local Time) from KRPH Reporting Station
Clear Clear  
Wind Chill: 33°   Ceiling: Unl
Heat Index: 33°   Visibility: 10mi
Dew Point: 30°   Wind: 0mph
Humidity: 92%   Direction: NA
Pressure: 30.21"   Gusts: NA
Location:  33.45°N, 98.92°W
Report Text: KRPH 261410Z AUTO 00000KT 10SM CLR 00/M01 A3021 RMK AO2 T00031009
Loading
Personal Weather Stations






























Interactive Weather Map New forecast layout! Learn more

10-Day Weather Forecast

Advertisements
Track Severe Weather on mobile